createdAt,value
2022-10-06T00:01:15.698Z,96997.06
2022-10-06T00:03:42.090Z,96999.75
2022-10-06T00:06:08.426Z,97002.47
2022-10-06T00:08:34.807Z,97002.91
2022-10-06T00:11:01.152Z,96995.25
2022-10-06T00:13:27.471Z,96998.13
2022-10-06T00:15:53.907Z,96994.69
2022-10-06T00:18:20.294Z,96997.44
2022-10-06T00:20:46.623Z,96995.50
2022-10-06T00:23:12.988Z,96992.44
2022-10-06T00:25:39.318Z,96992.13
2022-10-06T00:28:05.704Z,96999.69
2022-10-06T00:30:32.163Z,96992.44
2022-10-06T00:32:58.497Z,96999.03
2022-10-06T00:35:24.844Z,96996.34
2022-10-06T00:37:51.215Z,97003.63
2022-10-06T00:40:17.568Z,96999.41
2022-10-06T00:42:43.898Z,97005.50
2022-10-06T00:45:10.272Z,97002.19
2022-10-06T00:47:36.624Z,97002.00
2022-10-06T00:50:02.967Z,97004.28
2022-10-06T00:52:29.327Z,96995.53
2022-10-06T00:54:55.650Z,96997.06
2022-10-06T00:57:21.998Z,96999.34
2022-10-06T00:59:48.442Z,97002.44
2022-10-06T01:02:14.877Z,97010.47
2022-10-06T01:04:41.288Z,97010.47
2022-10-06T01:07:07.672Z,97018.88
2022-10-06T01:09:34.054Z,97015.06
2022-10-06T01:12:00.405Z,97015.50
2022-10-06T01:14:26.836Z,97011.66
2022-10-06T01:16:53.192Z,97013.19
2022-10-06T01:19:19.522Z,97021.34
2022-10-06T01:21:45.899Z,97027.63
2022-10-06T01:24:12.236Z,97025.72
2022-10-06T01:26:38.571Z,97026.16
2022-10-06T01:29:04.917Z,97020.78
2022-10-06T01:31:31.333Z,97024.59
2022-10-06T01:33:57.776Z,97020.00
2022-10-06T01:36:24.144Z,97020.00
2022-10-06T01:38:50.469Z,97019.25
2022-10-06T01:41:16.868Z,97014.34
2022-10-06T01:43:43.227Z,97015.81
2022-10-06T01:46:09.606Z,97016.56
2022-10-06T01:48:35.964Z,97025.13
2022-10-06T01:51:02.315Z,97017.78
2022-10-06T01:53:28.640Z,97018.47
2022-10-06T01:55:54.980Z,97020.75
2022-10-06T01:58:21.342Z,97018.09
2022-10-06T02:00:47.676Z,97018.09
2022-10-06T02:03:14.024Z,97023.06
2022-10-06T02:05:40.455Z,97016.16
2022-10-06T02:08:06.792Z,97014.69
2022-10-06T02:10:33.144Z,97015.41
2022-10-06T02:12:59.570Z,97023.06
2022-10-06T02:15:25.907Z,97020.78
2022-10-06T02:17:52.247Z,97023.84
2022-10-06T02:20:18.715Z,97022.75
2022-10-06T02:22:45.042Z,97022.25
2022-10-06T02:25:11.376Z,97016.41
2022-10-06T02:27:37.837Z,97016.06
2022-10-06T02:30:04.189Z,97005.41
2022-10-06T02:32:30.537Z,97020.72
2022-10-06T02:34:56.896Z,97015.41
2022-10-06T02:37:23.215Z,97018.88
2022-10-06T02:39:49.565Z,97022.28
2022-10-06T02:42:15.938Z,97020.81
2022-10-06T02:44:42.274Z,97026.56
2022-10-06T02:47:08.626Z,97024.22
2022-10-06T02:49:37.014Z,97021.56
2022-10-06T02:52:03.357Z,97026.13
2022-10-06T02:54:29.712Z,97021.19
2022-10-06T02:56:56.178Z,97032.94
2022-10-06T02:59:24.046Z,97016.00
2022-10-06T03:01:50.478Z,97016.84
2022-10-06T03:04:16.890Z,97025.34
2022-10-06T03:06:43.233Z,97021.50
2022-10-06T03:09:09.566Z,97017.75
2022-10-06T03:11:35.936Z,97025.41
2022-10-06T03:14:02.276Z,97025.00
2022-10-06T03:16:28.682Z,97021.56
2022-10-06T03:18:55.106Z,97021.19
2022-10-06T03:21:21.447Z,97022.69
2022-10-06T03:23:47.787Z,97022.72
2022-10-06T03:26:14.218Z,97028.50
2022-10-06T03:28:40.602Z,97027.78
2022-10-06T03:31:06.975Z,97040.34
2022-10-06T03:33:33.346Z,97050.28
2022-10-06T03:35:59.675Z,97037.84
2022-10-06T03:38:26.360Z,97035.31
2022-10-06T03:40:52.946Z,97035.28
2022-10-06T03:43:19.289Z,97033.81
2022-10-06T03:45:45.623Z,97041.06
2022-10-06T03:48:11.998Z,97040.34
2022-10-06T03:50:38.330Z,97040.34
2022-10-06T03:53:04.649Z,97038.41
2022-10-06T03:55:31.096Z,97044.16
2022-10-06T03:57:57.445Z,97051.81
2022-10-06T04:00:23.795Z,97053.72
2022-10-06T04:02:50.169Z,97054.09
2022-10-06T04:05:16.526Z,97062.59
2022-10-06T04:07:42.862Z,97053.59
2022-10-06T04:10:09.217Z,97064.47
2022-10-06T04:12:35.554Z,97064.09
2022-10-06T04:15:01.899Z,97054.56
2022-10-06T04:17:28.265Z,97057.59
2022-10-06T04:19:54.606Z,97063.72
2022-10-06T04:22:20.944Z,97063.34
2022-10-06T04:24:47.317Z,97054.94
2022-10-06T04:27:13.671Z,97057.22
2022-10-06T04:29:40.007Z,97060.66
2022-10-06T04:32:06.410Z,97071.03
2022-10-06T04:34:32.756Z,97065.91
2022-10-06T04:36:59.104Z,97064.72
2022-10-06T04:39:25.530Z,97063.34
2022-10-06T04:41:51.871Z,97069.88
2022-10-06T04:44:18.222Z,97072.94
2022-10-06T04:46:45.284Z,97081.78
2022-10-06T04:49:17.975Z,97080.59
2022-10-06T04:51:46.188Z,97074.47
2022-10-06T04:54:12.549Z,97077.56
2022-10-06T04:56:38.908Z,97082.16
2022-10-06T04:59:05.282Z,97086.34
2022-10-06T05:01:31.670Z,97083.31
2022-10-06T05:03:58.095Z,97082.03
2022-10-06T05:06:24.579Z,97075.91
2022-10-06T05:08:50.932Z,97075.25
2022-10-06T05:11:20.300Z,97069.16
2022-10-06T05:13:48.937Z,97068.38
2022-10-06T05:16:15.341Z,97078.34
2022-10-06T05:18:41.718Z,97078.34
2022-10-06T05:21:08.090Z,97090.22
2022-10-06T05:23:34.436Z,97081.81
2022-10-06T05:26:00.802Z,97085.25
2022-10-06T05:28:27.855Z,97078.75
2022-10-06T05:30:54.597Z,97081.41
2022-10-06T05:33:20.936Z,97091.31
2022-10-06T05:35:47.370Z,97078.47
2022-10-06T05:38:13.781Z,97089.78
2022-10-06T05:40:40.115Z,97081.41
2022-10-06T05:43:06.468Z,97085.63
2022-10-06T05:45:32.854Z,97082.19
2022-10-06T05:47:59.215Z,97083.72
2022-10-06T05:50:25.591Z,97085.63
2022-10-06T05:52:51.952Z,97083.34
2022-10-06T05:55:18.288Z,97081.03
2022-10-06T05:57:44.699Z,97089.09
2022-10-06T06:00:11.037Z,97091.41
2022-10-06T06:02:37.473Z,97100.59
2022-10-06T06:05:03.931Z,97083.22
2022-10-06T06:07:30.294Z,97088.75
2022-10-06T06:09:56.656Z,97084.53
2022-10-06T06:12:23.020Z,97080.34
2022-10-06T06:14:49.367Z,97090.66
2022-10-06T06:17:15.709Z,97084.56
2022-10-06T06:19:42.087Z,97089.16
2022-10-06T06:22:08.483Z,97099.09
2022-10-06T06:24:34.822Z,97100.63
2022-10-06T06:27:01.356Z,97098.34
2022-10-06T06:29:27.707Z,97097.16
2022-10-06T06:31:54.088Z,97091.72
2022-10-06T06:34:20.535Z,97099.84
2022-10-06T06:36:46.898Z,97096.06
2022-10-06T06:39:13.270Z,97094.91
2022-10-06T06:41:39.662Z,97097.97
2022-10-06T06:44:06.037Z,97101.41
2022-10-06T06:46:32.480Z,97110.56
2022-10-06T06:48:59.026Z,97104.06
2022-10-06T06:51:25.368Z,97110.97
2022-10-06T06:53:51.740Z,97115.91
2022-10-06T06:56:18.203Z,97125.09
2022-10-06T06:58:44.576Z,97114.38
2022-10-06T07:01:10.965Z,97115.94
2022-10-06T07:03:57.720Z,97112.50
2022-10-06T07:06:27.776Z,97118.59
2022-10-06T07:08:54.651Z,97119.00
2022-10-06T07:11:21.051Z,97123.19
2022-10-06T07:13:47.402Z,97122.81
2022-10-06T07:16:13.845Z,97130.84
2022-10-06T07:18:40.258Z,97128.56
2022-10-06T07:21:06.604Z,97135.03
2022-10-06T07:23:32.974Z,97133.09
2022-10-06T07:25:59.302Z,97125.13
2022-10-06T07:28:25.712Z,97128.94
2022-10-06T07:30:52.256Z,97123.56
2022-10-06T07:33:18.581Z,97133.91
2022-10-06T07:35:44.910Z,97128.91
2022-10-06T07:38:11.255Z,97130.06
2022-10-06T07:40:40.231Z,97131.22
2022-10-06T07:43:12.820Z,97133.50
2022-10-06T07:45:39.353Z,97122.06
2022-10-06T07:48:05.968Z,97131.97
2022-10-06T07:50:32.428Z,97136.94
2022-10-06T07:52:58.868Z,97126.63
2022-10-06T07:55:25.325Z,97128.53
2022-10-06T07:57:51.730Z,97137.31
2022-10-06T08:00:18.094Z,97128.16
2022-10-06T08:02:44.502Z,97138.84
2022-10-06T08:05:11.078Z,97141.91
2022-10-06T08:07:37.427Z,97139.59
2022-10-06T08:10:03.776Z,97138.09
2022-10-06T08:12:30.248Z,97141.53
2022-10-06T08:14:56.905Z,97146.50
2022-10-06T08:17:23.628Z,97141.13
2022-10-06T08:19:50.021Z,97135.44
2022-10-06T08:22:16.465Z,97140.38
2022-10-06T08:25:04.685Z,97142.69
2022-10-06T08:27:29.271Z,97150.31
2022-10-06T08:29:55.618Z,97146.88
2022-10-06T08:32:21.947Z,97136.56
2022-10-06T08:34:48.308Z,97137.72
2022-10-06T08:37:19.734Z,97134.28
2022-10-06T08:39:53.832Z,97135.03
2022-10-06T08:42:20.285Z,97140.75
2022-10-06T08:44:46.597Z,97143.06
2022-10-06T08:47:12.913Z,97149.94
2022-10-06T08:49:39.443Z,97140.75
2022-10-06T08:52:05.816Z,97146.88
2022-10-06T08:54:32.127Z,97147.25
2022-10-06T08:56:58.469Z,97142.31
2022-10-06T08:59:24.810Z,97135.03
2022-10-06T09:01:51.238Z,97135.78
2022-10-06T09:04:17.735Z,97141.94
2022-10-06T09:06:44.111Z,97136.56
2022-10-06T09:09:10.466Z,97146.13
2022-10-06T09:11:36.847Z,97140.34
2022-10-06T09:14:03.163Z,97133.88
2022-10-06T09:16:29.641Z,97131.19
2022-10-06T09:19:08.327Z,97122.44
2022-10-06T09:21:35.281Z,97132.75
2022-10-06T09:24:01.643Z,97130.06
2022-10-06T09:26:28.012Z,97134.28
2022-10-06T09:28:54.351Z,97129.69
2022-10-06T09:31:20.789Z,97130.06
2022-10-06T09:33:47.188Z,97128.94
2022-10-06T09:36:13.551Z,97129.25
2022-10-06T09:38:39.945Z,97134.63
2022-10-06T09:41:06.313Z,97123.56
2022-10-06T09:43:32.653Z,97123.19
2022-10-06T09:45:59.649Z,97127.00
2022-10-06T09:48:26.032Z,97125.84
2022-10-06T09:50:52.342Z,97128.16
2022-10-06T09:53:18.745Z,97120.13
2022-10-06T09:55:45.104Z,97132.34
2022-10-06T09:58:11.446Z,97121.28
2022-10-06T10:00:37.873Z,97106.75
2022-10-06T10:03:04.321Z,97119.31
2022-10-06T10:05:30.681Z,97119.72
2022-10-06T10:07:57.205Z,97110.56
2022-10-06T10:10:23.600Z,97104.81
2022-10-06T10:12:49.949Z,97107.50
2022-10-06T10:15:16.325Z,97104.84
2022-10-06T10:17:42.682Z,97100.22
2022-10-06T10:20:09.027Z,97101.78
2022-10-06T10:22:35.529Z,97102.91
2022-10-06T10:25:01.888Z,97091.84
2022-10-06T10:27:28.375Z,97103.28
2022-10-06T10:29:55.132Z,97101.34
2022-10-06T10:32:21.643Z,97098.69
2022-10-06T10:34:48.085Z,97104.44
2022-10-06T10:37:14.567Z,97097.56
2022-10-06T10:39:41.052Z,97101.75
2022-10-06T10:42:07.433Z,97092.59
2022-10-06T10:44:33.819Z,97096.81
2022-10-06T10:47:00.244Z,97095.25
2022-10-06T10:49:26.650Z,97092.97
2022-10-06T10:51:53.061Z,97087.97
2022-10-06T10:54:19.442Z,97091.81
2022-10-06T10:56:45.854Z,97096.75
2022-10-06T10:59:12.269Z,97083.72
2022-10-06T11:01:38.674Z,97088.75
2022-10-06T11:04:05.064Z,97079.56
2022-10-06T11:06:31.436Z,97087.97
2022-10-06T11:08:57.773Z,97089.50
2022-10-06T11:11:24.100Z,97085.69
2022-10-06T11:13:50.498Z,97081.84
2022-10-06T11:16:16.868Z,97080.75
2022-10-06T11:18:43.270Z,97077.31
2022-10-06T11:21:10.011Z,97076.91
2022-10-06T11:23:36.477Z,97084.94
2022-10-06T11:26:02.817Z,97083.25
2022-10-06T11:28:29.384Z,97074.59
2022-10-06T11:30:55.827Z,97071.94
2022-10-06T11:33:22.200Z,97073.84
2022-10-06T11:35:48.682Z,97073.09
2022-10-06T11:38:15.110Z,97066.19
2022-10-06T11:40:41.496Z,97064.28
2022-10-06T11:43:07.891Z,97057.41
2022-10-06T11:45:34.262Z,97066.19
2022-10-06T11:48:00.636Z,97057.00
2022-10-06T11:50:27.181Z,97057.81
2022-10-06T11:52:53.582Z,97060.41
2022-10-06T11:55:19.942Z,97040.84
2022-10-06T11:57:46.341Z,97040.94
2022-10-06T12:00:12.728Z,97049.38
2022-10-06T12:02:39.215Z,97040.16
2022-10-06T12:05:13.924Z,97043.25
2022-10-06T12:07:52.089Z,97037.88
2022-10-06T12:10:18.535Z,97038.25
2022-10-06T12:13:01.924Z,97032.88
2022-10-06T12:17:05.496Z,97030.59
2022-10-06T12:18:17.620Z,97024.47
2022-10-06T12:20:43.997Z,97026.38
2022-10-06T12:23:10.364Z,97021.59
2022-10-06T12:25:36.752Z,97016.72
2022-10-06T12:28:03.210Z,97016.41
2022-10-06T12:30:29.652Z,97011.06
2022-10-06T12:32:56.052Z,97011.03
2022-10-06T12:35:22.524Z,97009.53
2022-10-06T12:37:53.773Z,97008.00
2022-10-06T12:40:20.764Z,97005.31
2022-10-06T12:42:47.180Z,97002.25
2022-10-06T12:45:13.601Z,96994.59
2022-10-06T12:47:39.934Z,96995.75
2022-10-06T12:50:06.391Z,97002.25
2022-10-06T12:52:32.736Z,96999.28
2022-10-06T12:54:59.291Z,96985.72
2022-10-06T12:57:25.975Z,96977.38
2022-10-06T12:59:52.310Z,96971.97
2022-10-06T13:02:18.708Z,96971.25
2022-10-06T13:04:45.204Z,96973.50
2022-10-06T13:07:11.585Z,96967.41
2022-10-06T13:09:38.009Z,96968.53
2022-10-06T13:12:04.485Z,96970.44
2022-10-06T13:14:30.868Z,96958.94
2022-10-06T13:16:59.757Z,96959.72
2022-10-06T13:19:29.607Z,96959.28
2022-10-06T13:21:55.977Z,96952.06
2022-10-06T13:24:22.377Z,96950.50
2022-10-06T13:26:48.751Z,96958.59
2022-10-06T13:29:15.133Z,96950.16
2022-10-06T13:31:41.588Z,96949.00
2022-10-06T13:34:07.985Z,96944.06
2022-10-06T13:36:34.390Z,96942.50
2022-10-06T13:39:00.734Z,96947.84
2022-10-06T13:41:27.150Z,96942.09
2022-10-06T13:43:53.519Z,96953.94
2022-10-06T13:46:19.970Z,96940.56
2022-10-06T13:48:46.537Z,96960.06
2022-10-06T13:51:12.914Z,96959.34
2022-10-06T13:53:39.318Z,96950.06
2022-10-06T13:56:05.698Z,96944.75
2022-10-06T13:58:32.092Z,96946.28
2022-10-06T14:00:58.438Z,96944.00
2022-10-06T14:03:24.904Z,96944.75
2022-10-06T14:05:51.307Z,96946.69
2022-10-06T14:08:17.777Z,96938.25
2022-10-06T14:10:44.135Z,96940.91
2022-10-06T14:13:10.534Z,96944.75
2022-10-06T14:15:36.929Z,96937.50
2022-10-06T14:18:03.335Z,96948.16
2022-10-06T14:20:29.725Z,96941.31
2022-10-06T14:22:56.100Z,96948.16
2022-10-06T14:25:22.609Z,96948.94
2022-10-06T14:27:49.007Z,96942.09
2022-10-06T14:30:15.347Z,96949.72
2022-10-06T14:32:41.723Z,96940.19
2022-10-06T14:35:08.105Z,96938.66
2022-10-06T14:37:34.456Z,96942.88
2022-10-06T14:40:01.473Z,96938.28
2022-10-06T14:42:28.259Z,96938.66
2022-10-06T14:44:54.623Z,96934.84
2022-10-06T14:47:21.010Z,96937.81
2022-10-06T14:49:47.375Z,96938.28
2022-10-06T14:52:13.721Z,96935.53
2022-10-06T14:54:40.099Z,96932.53
2022-10-06T14:57:06.455Z,96934.84
2022-10-06T14:59:32.809Z,96926.81
2022-10-06T15:01:59.600Z,96919.19
2022-10-06T15:04:26.016Z,96927.56
2022-10-06T15:06:52.391Z,96927.22
2022-10-06T15:09:18.874Z,96926.09
2022-10-06T15:11:45.317Z,96928.34
2022-10-06T15:14:11.728Z,96919.22
2022-10-06T15:16:38.192Z,96922.16
2022-10-06T15:19:04.597Z,96917.59
2022-10-06T15:21:30.959Z,96921.44
2022-10-06T15:23:57.436Z,96914.25
2022-10-06T15:26:23.775Z,96912.69
2022-10-06T15:28:50.228Z,96907.34
2022-10-06T15:31:16.798Z,96908.53
2022-10-06T15:33:43.193Z,96908.53
2022-10-06T15:36:09.614Z,96903.91
2022-10-06T15:38:36.007Z,96908.91
2022-10-06T15:41:02.385Z,96905.44
2022-10-06T15:43:28.722Z,96903.91
2022-10-06T15:45:55.296Z,96906.16
2022-10-06T15:48:21.652Z,96903.50
2022-10-06T15:50:48.005Z,96894.25
2022-10-06T15:53:14.399Z,96892.41
2022-10-06T15:55:40.754Z,96893.59
2022-10-06T15:58:07.134Z,96896.69
2022-10-06T16:00:33.486Z,96898.59
2022-10-06T16:02:59.877Z,96895.50
2022-10-06T16:05:26.279Z,96896.69
2022-10-06T16:07:52.784Z,96899.34
2022-10-06T16:10:19.153Z,96895.50
2022-10-06T16:12:45.526Z,96908.91
2022-10-06T16:15:11.990Z,96912.66
2022-10-06T16:17:38.358Z,96900.81
2022-10-06T16:20:04.713Z,96907.34
2022-10-06T16:22:31.146Z,96902.41
2022-10-06T16:24:57.508Z,96896.28
2022-10-06T16:27:23.868Z,96899.38
2022-10-06T16:29:50.338Z,96903.91
2022-10-06T16:32:16.658Z,96902.75
2022-10-06T16:34:43.016Z,96898.53
2022-10-06T16:37:09.540Z,96898.47
2022-10-06T16:39:35.910Z,96905.75
2022-10-06T16:42:02.236Z,96893.88
2022-10-06T16:44:28.743Z,96898.03
2022-10-06T16:46:55.184Z,96895.72
2022-10-06T16:49:23.923Z,96898.41
2022-10-06T16:51:50.294Z,96900.72
2022-10-06T16:54:16.629Z,96899.59
2022-10-06T16:56:42.969Z,96900.75
2022-10-06T16:59:09.346Z,96904.59
2022-10-06T17:01:35.673Z,96911.84
2022-10-06T17:04:02.040Z,96906.09
2022-10-06T17:06:28.564Z,96898.47
2022-10-06T17:08:54.909Z,96906.50
2022-10-06T17:11:21.253Z,96906.50
2022-10-06T17:13:47.705Z,96912.13
2022-10-06T17:16:14.134Z,96905.28
2022-10-06T17:18:40.534Z,96911.03
2022-10-06T17:21:25.942Z,96905.69
2022-10-06T17:23:53.234Z,96908.34
2022-10-06T17:26:19.647Z,96917.56
2022-10-06T17:28:46.032Z,96916.44
2022-10-06T17:31:12.437Z,96916.81
2022-10-06T17:33:38.857Z,96911.84
2022-10-06T17:36:05.202Z,96932.09
2022-10-06T17:38:31.562Z,96923.28
2022-10-06T17:40:57.922Z,96917.94
2022-10-06T17:43:24.251Z,96924.31
2022-10-06T17:45:50.672Z,96916.16
2022-10-06T17:48:17.174Z,96927.88
2022-10-06T17:50:43.494Z,96927.09
2022-10-06T17:53:09.834Z,96924.84
2022-10-06T17:55:36.224Z,96927.16
2022-10-06T17:58:02.551Z,96932.50
2022-10-06T18:00:28.882Z,96925.25
2022-10-06T18:02:55.236Z,96930.56
2022-10-06T18:05:21.580Z,96926.31
2022-10-06T18:07:47.921Z,96927.50
2022-10-06T18:10:14.320Z,96934.38
2022-10-06T18:12:40.894Z,96926.72
2022-10-06T18:15:07.347Z,96929.56
2022-10-06T18:17:33.715Z,96927.47
2022-10-06T18:20:00.060Z,96927.84
2022-10-06T18:22:26.409Z,96928.94
2022-10-06T18:24:56.132Z,96933.91
2022-10-06T18:27:25.488Z,96931.63
2022-10-06T18:29:51.846Z,96932.00
2022-10-06T18:37:55.730Z,96939.66
2022-10-06T18:40:22.889Z,96927.41
2022-10-06T18:42:49.261Z,96937.72
2022-10-06T18:45:15.694Z,96935.78
2022-10-06T18:47:42.304Z,96941.50
2022-10-06T18:50:08.970Z,96937.50
2022-10-06T18:52:35.347Z,96937.63
2022-10-06T18:55:01.710Z,96936.94
2022-10-06T18:57:28.143Z,96939.19
2022-10-06T18:59:54.533Z,96940.75
2022-10-06T19:02:20.911Z,96939.97
2022-10-06T19:04:47.335Z,96948.00
2022-10-06T19:07:13.696Z,96944.59
2022-10-06T19:09:45.930Z,96941.50
2022-10-06T19:12:13.139Z,96939.59
2022-10-06T19:14:39.492Z,96951.13
2022-10-06T19:17:05.842Z,96940.38
2022-10-06T19:19:32.252Z,96950.97
2022-10-06T19:21:58.608Z,96949.63
2022-10-06T19:24:24.940Z,96952.88
2022-10-06T19:26:51.326Z,96951.03
2022-10-06T19:29:17.663Z,96955.31
2022-10-06T19:31:44.006Z,96957.19
2022-10-06T19:34:10.511Z,96951.81
2022-10-06T19:36:36.857Z,96951.81
2022-10-06T19:39:03.191Z,96962.53
2022-10-06T19:41:29.640Z,96960.22
2022-10-06T19:43:55.992Z,96957.53
2022-10-06T19:46:22.383Z,96960.19
2022-10-06T19:48:48.888Z,96970.94
2022-10-06T19:51:15.224Z,96965.22
2022-10-06T19:53:41.562Z,96967.16
2022-10-06T19:56:07.953Z,96968.94
2022-10-06T19:58:34.295Z,96967.38
2022-10-06T20:01:00.680Z,96959.47
2022-10-06T20:03:27.157Z,96971.34
2022-10-06T20:05:53.489Z,96966.31
2022-10-06T20:08:19.858Z,96969.78
2022-10-06T20:10:46.243Z,96970.56
2022-10-06T20:13:12.592Z,96974.38
2022-10-06T20:15:38.944Z,96973.25
2022-10-06T20:18:05.308Z,96973.25
2022-10-06T20:20:31.675Z,96973.59
2022-10-06T20:22:58.011Z,96972.06
2022-10-06T20:25:24.381Z,96973.63
2022-10-06T20:27:50.724Z,96974.78
2022-10-06T20:30:17.055Z,96975.06
2022-10-06T20:32:43.499Z,96966.88
2022-10-06T20:35:09.838Z,96970.47
2022-10-06T20:37:36.195Z,96974.38
2022-10-06T20:40:02.575Z,96972.81
2022-10-06T20:42:28.914Z,96972.06
2022-10-06T20:44:55.248Z,96973.59
2022-10-06T20:47:21.721Z,96970.13
2022-10-06T20:49:48.375Z,96977.84
2022-10-06T20:52:14.912Z,96972.53
2022-10-06T20:54:41.402Z,96978.66
2022-10-06T20:57:07.745Z,96979.03
2022-10-06T20:59:34.078Z,96976.75
2022-10-06T21:02:00.543Z,96976.34
2022-10-06T21:04:26.925Z,96984.03
2022-10-06T21:06:53.258Z,96982.94
2022-10-06T21:09:19.703Z,96981.56
2022-10-06T21:11:46.026Z,96974.38
2022-10-06T21:14:12.389Z,96976.69
2022-10-06T21:16:38.741Z,96978.19
2022-10-06T21:19:05.073Z,96980.50
2022-10-06T21:21:31.400Z,96982.41
2022-10-06T21:23:57.861Z,96967.13
2022-10-06T21:26:24.194Z,96956.03
2022-10-06T21:28:50.525Z,96971.75
2022-10-06T21:31:16.920Z,96972.47
2022-10-06T21:33:43.301Z,96971.69
2022-10-06T21:36:09.630Z,96967.47
2022-10-06T21:38:36.064Z,96973.78
2022-10-06T21:41:02.398Z,96966.56
2022-10-06T21:43:28.721Z,96964.34
2022-10-06T21:46:17.173Z,96957.50
2022-10-06T21:48:41.641Z,96949.06
2022-10-06T21:51:08.153Z,96964.09
2022-10-06T21:53:34.481Z,96959.44
2022-10-06T21:56:00.818Z,96957.16
2022-10-06T21:58:27.357Z,96959.06
2022-10-06T22:00:57.365Z,96955.59
2022-10-06T22:03:24.525Z,96955.97
2022-10-06T22:05:51.017Z,96952.59
2022-10-06T22:08:17.341Z,96956.78
2022-10-06T22:10:43.694Z,96953.72
2022-10-06T22:13:10.221Z,96957.84
2022-10-06T22:15:36.645Z,96953.91
2022-10-06T22:18:03.044Z,96958.25
2022-10-06T22:20:30.438Z,96952.88
2022-10-06T22:22:58.490Z,96955.97
2022-10-06T22:25:27.683Z,96951.38
2022-10-06T22:27:54.153Z,96949.47
2022-10-06T22:30:20.482Z,96948.78
2022-10-06T22:32:46.813Z,96954.16
2022-10-06T22:35:13.263Z,96945.75
2022-10-06T22:37:39.589Z,96952.59
2022-10-06T22:40:07.727Z,96954.22
2022-10-06T22:42:34.380Z,96941.94
2022-10-06T22:45:00.711Z,96948.78
2022-10-06T22:47:27.041Z,96938.22
2022-10-06T22:49:53.512Z,96941.69
2022-10-06T22:52:19.856Z,96943.69
2022-10-06T22:54:46.181Z,96934.19
2022-10-06T22:57:12.950Z,96936.06
2022-10-06T22:59:39.269Z,96937.63
2022-10-06T23:02:05.633Z,96932.69
2022-10-06T23:04:32.110Z,96928.09
2022-10-06T23:06:58.441Z,96932.28
2022-10-06T23:09:24.814Z,96931.53
2022-10-06T23:11:51.304Z,96929.19
2022-10-06T23:14:17.628Z,96926.16
2022-10-06T23:16:44.033Z,96928.06
2022-10-06T23:19:10.950Z,96938.53
2022-10-06T23:21:37.286Z,96936.47
2022-10-06T23:24:03.678Z,96927.69
2022-10-06T23:26:30.192Z,96928.41
2022-10-06T23:28:56.527Z,96927.63
2022-10-06T23:31:22.942Z,96928.53
2022-10-06T23:33:49.524Z,96919.66
2022-10-06T23:36:15.858Z,96923.47
2022-10-06T23:38:42.193Z,96914.28
2022-10-06T23:41:09.565Z,96916.59
2022-10-06T23:43:35.915Z,96912.38
2022-10-06T23:46:02.332Z,96912.75
2022-10-06T23:48:28.920Z,96915.44
2022-10-06T23:50:55.265Z,96920.44
2022-10-06T23:53:21.590Z,96919.38
2022-10-06T23:55:48.106Z,96919.63
2022-10-06T23:58:14.434Z,96912.31
